St. George, Utah Weather observations

Data are for observation ending at time listed.
 Day   Time    Ave.   Ave.  Ave.  Vector   Max.   Stn.    Total    Solar   Ave.  
  of    of     Air    Rel.  Wind   Wind    Wind   Baro.  Precip.   Rad.    Soil  
Year   Day     Temp.  Hum.  Speed  Dir.    Gust   Pres.                    Temp. 
2016   (MST)    F      %     mph   deg.    mph     mb.     in.     W/m2     F   
------------------------------------------------------------------------------
 179    6:00   73.1    30    0.2   116      1.3   921.6    0.00      30    77.5
 179    6:10   74.5    28    0.2   200      1.5   921.6    0.00      56    80.3
 179    6:20   75.8    28    0.4   208      1.5   921.7    0.00      87    81.3
 179    6:30   76.3    29    0.5   293      1.8   921.8    0.00     121    81.8
 179    6:40   77.0    30    0.9   317      2.6   921.9    0.00     150    82.0
 179    6:50   78.7    28    0.3    73      3.0   922.0    0.00     179    82.1
 179    7:00   80.9    18    0.9    58      3.2   922.0    0.00     210    82.2
 179    7:10   82.1    18    0.4    41      2.5   922.1    0.00     241    82.2
 179    7:20   83.2    16    0.8   163      2.2   922.3    0.00     274    82.2
 179    7:30   83.4    16    0.8   177      2.5   922.3    0.00     307    82.2
 179    7:40   82.4    22    1.3   208      2.6   922.3    0.00     340    82.1
 179    7:50   82.6    21    0.5   202      2.0   922.4    0.00     374    82.1
 179    8:00   83.6    19    0.9   198      2.8   922.4    0.00     407    82.1
 179    8:10   84.7    20    1.0   235      2.4   922.5    0.00     439    82.1
 179    8:20   85.9    18    0.3   249      1.8   922.4    0.00     470    82.1
 179    8:30   87.3    16    0.0   230      0.7   922.4    0.00     501    82.1
 179    8:40   88.4    16    0.2   235      1.7   922.4    0.00     531    82.1
 179    8:50   90.5    16    0.3   180      1.5   922.4    0.00     562    82.0
 179    9:00   90.4    15    0.5   244      1.8   922.3    0.00     591    82.0
 179    9:10   90.8    13    1.0   231      3.5   922.3    0.00     622    82.0
 179    9:20   92.7    13    0.5   252      1.6   922.3    0.00     649    82.1
 179    9:30   93.3    12    0.9   263      3.0   922.1    0.00     677    82.1
 179    9:40   94.0    12    0.4   252      2.4   921.9    0.00     702    82.1
 179    9:50   95.0    12    0.5   182      2.6   921.9    0.00     724    82.1
 179   10:00   94.9    11    0.8   211      4.1   921.6    0.00     748    82.2
 179   10:10   95.1    12    1.4   194      3.9   921.5    0.00     772    82.3
 179   10:20   95.1    12    1.6   205      3.9   921.5    0.00     797    82.3
 179   10:30   95.6    12    1.4   245      4.7   921.4    0.00     818    82.4
 179   10:40   96.5    12    1.0   221      4.2   921.3    0.00     836    82.6
 179   10:50   97.5    11    1.2   201      4.4   921.3    0.00     854    82.7
 179   11:00   97.4    12    1.6   225      4.5   921.2    0.00     874    82.8
 179   11:10   98.5    12    0.7   210      3.9   921.0    0.00     887    82.9
 179   11:20   99.2    11    1.0   184      4.3   920.9    0.00     901    83.1
 179   11:30   99.3    11    0.3   198      3.8   920.8    0.00     914    83.2
 179   11:40  100.6    11    0.1   332      3.9   920.7    0.00     923    83.3
 179   11:50  101.7    10    0.1   300      2.8   920.6    0.00     928    83.4
 179   12:00  101.7    11    0.5    50      4.0   920.4    0.00     937    83.6
 179   12:10  102.4    10    0.0   338      1.3   920.2    0.00     941    83.8
 179   12:20  103.0    11    0.5   200      4.7   920.1    0.00     947    84.0
 179   12:30  103.0     9    1.2   185      5.4   920.0    0.00     952    84.1
 179   12:40  103.7    10    0.8   226      6.5   919.8    0.00     952    84.3
 179   12:50  103.7    10    1.2   185      6.1   919.7    0.00     953    84.5
 179   13:00  103.7    10    0.4   190      4.2   919.5    0.00     952    84.8
 179   13:10  103.7    10    0.0    49      1.3   919.4    0.00     951    85.0
 179   13:20  104.2     9    0.2    60      3.9   919.2    0.00     948    85.2
 179   13:30  104.8     9    0.1   226      2.7   919.2    0.00     945    85.4
 179   13:40  105.5     8    0.0   304      1.7   918.9    0.00     941    85.7
 179   13:50  105.9     9    0.0    68      0.7   918.8    0.00     931    85.8
 179   14:00  105.8     9    0.3   260      5.8   918.6    0.00     921    86.0
 179   14:10  107.1     9    0.4   289      4.5   918.5    0.00     913    86.1
 179   14:20  106.2     8    2.0   214      8.8   918.4    0.00     906    86.3
 179   14:30  106.3     8    0.3   234      7.0   918.2    0.00     896    86.4
 179   14:40  107.0     8    0.2   190      3.4   918.0    0.00     878    86.5
 179   14:50  107.1     8    0.3   264      3.6   917.9    0.00     864    86.6
 179   15:00  107.3     7    0.0   288      1.2   917.7    0.00     850    86.7
 179   15:10  108.7     7    0.4   272      4.2   917.7    0.00     833    86.8
 179   15:20  107.6     7    0.8   334      5.7   917.1    0.00     794    87.0
 179   15:30  108.7     7    0.2   252      2.6   917.0    0.00     785    87.1
 179   15:40  108.9     7    1.5   347      8.5   916.9    0.00     713    87.3
 179   15:50  108.0     7    1.9   323      8.2   915.7    0.00     604    87.4
 179   16:00  108.1     7    0.5   348      3.9   916.0    0.00     456    87.5
 179   16:10  108.0     7    1.5   287      6.4   915.9    0.00     563    87.7
 179   16:20  108.7     6    0.8   197      4.5   915.8    0.00     634    87.8
 179   16:30  109.1     7    0.0   292      1.5   915.7    0.00     441    88.0
 179   16:40  108.5     7    0.6   244      5.8   915.7    0.00     442    88.1
 179   16:50  108.2     7    2.7   233      8.3   915.6    0.00     523    88.2
 179   17:00  108.4     7    0.9   245      4.4   915.6    0.00     584    88.3
 179   17:10  108.4     7    1.6   239      7.0   915.5    0.00     317    88.4
 179   17:20  107.3     7    1.6   184      5.4   915.4    0.00     224    88.5
 179   17:30  107.2     7    1.8   189      7.3   915.3    0.00     269    88.6
 179   17:40  107.1     8    0.5   201      4.3   915.2    0.00     216    88.7
 179   17:50  106.5     8    0.4   247      4.2   915.2    0.00     209    88.8
 179   18:00  106.4     8    1.6   220      4.5   915.2    0.00     263    88.8
 179   18:10  106.5     8    2.2   223      7.3   915.3    0.00     303    88.9
 179   18:20  106.4     9    3.1   227     12.3   915.2    0.00     187    88.9
 179   18:30  105.6     9    5.0   236     12.6   915.3    0.00     149    88.9
 179   18:40  105.7     9    6.2   234     12.6   915.3    0.00     139    88.9
 179   18:50  105.4    10    5.7   242     12.9   915.3    0.00     123    88.9
 179   19:00  105.3    10    4.8   237      9.2   915.3    0.00     108    89.0
 179   19:10  105.0    10    3.9   242      9.8   915.3    0.00      89    89.0
 179   19:20  104.7     9    3.8   244      9.3   915.4    0.00      65    88.9
 179   19:30  104.5     9    4.2   239     10.2   915.4    0.00      48    89.0
 179   19:40  104.1    10    5.0   236     11.1   915.5    0.00      35    89.0
 179   19:50  103.6    10    4.4   236      9.0   915.6    0.00      20    89.0
 179   20:00  103.2    10    4.4   242      9.3   915.6    0.00       9    88.9
 179   20:10  102.6    10    3.4   238      7.8   915.7    0.00       4    88.9
 179   20:20  102.1    10    3.0   241      6.1   915.8    0.00       3    88.9
 179   20:30  102.0    10    3.7   233      7.5   915.8    0.00       1    88.8
 179   20:40  101.9    10    4.9   214     12.7   916.0    0.00       0    88.8
 179   20:50  101.4    10    4.1   198      7.3   916.2    0.00       0    88.8
 179   21:00  100.0    11    2.5   208      8.1   916.3    0.00       0    88.7
 179   21:10   98.2    13    1.2    18      2.6   916.5    0.00       0    88.7
 179   21:20   96.4    14    1.1    80      3.9   916.8    0.00       0    88.7
 179   21:30   95.7    15    1.6    62      3.6   917.0    0.00       0    88.6
 179   21:40   94.8    15    0.9    44      2.4   917.1    0.00       0    88.6
 179   21:50   94.7    15    1.1    61      2.6   917.2    0.00       0    88.5
 179   22:00   94.3    15    0.8    84      2.2   917.3    0.00       0    88.4
 179   22:10   95.0    14    1.5    82      3.4   917.4    0.00       0    88.4
 179   22:20   94.9    15    2.1    92      6.0   917.4    0.00       0    88.3
 179   22:30   94.6    15    1.2   125      3.7   917.6    0.00       0    88.2
 179   22:40   95.7    14    3.3   100      7.7   918.0    0.00       0    88.2
 179   22:50   94.8    14    1.2    96      5.0   918.0    0.00       0    88.2
 179   23:00   94.5    14    1.9    80      5.6   918.2    0.00       0    88.1
 179   23:10   94.3    14    1.4    96      5.0   918.3    0.00       0    88.0
 179   23:20   94.2    14    1.2    34      5.0   918.4    0.00       0    88.0
 179   23:30   94.1    14    2.6    76      5.8   918.6    0.00       0    87.9
 179   23:40   93.9    15    1.9    68      4.8   918.6    0.00       0    87.8
 179   23:50   92.9    15    1.4    63      3.5   918.6    0.00       0    87.8
 180    0:00   92.3    16    1.4    86      3.9   918.8    0.00       0    87.7
 180    0:10   91.5    17    1.2    19      2.6   918.8    0.00       0    87.6
 180    0:20   91.5    16    1.9    36      4.1   918.8    0.00       0    87.5
 180    0:30   91.6    17    2.4    44      6.3   918.8    0.00       0    87.5
 180    0:40   91.3    17    1.8    36      3.2   918.7    0.00       0    87.4
 180    0:50   90.5    18    1.8    25      3.4   918.8    0.00       0    87.3
 180    1:00   90.5    18    1.9    36      4.7   918.9    0.00       0    87.2
 180    1:10   90.0    18    1.6    36      3.3   919.0    0.00       0    87.2
 180    1:20   90.2    18    2.4    65      4.9   919.1    0.00       0    87.1
 180    1:30   90.4    18    2.0    61      5.3   919.1    0.00       0    87.0
 180    1:40   89.7    19    1.5    57      4.2   919.1    0.00       0    87.0
 180    1:50   89.4    19    1.6    55      3.4   919.1    0.00       0    86.9
 180    2:00   88.8    19    0.6    67      2.0   919.2    0.00       0    86.8
 180    2:10   88.5    20    0.8    25      1.3   919.2    0.00       0    86.7
 180    2:20   87.4    22    0.2     4      0.9   919.2    0.00       0    86.7
 180    2:30   86.0    26    0.2   206      1.2   919.2    0.00       0    86.6
 180    2:40   86.0    23    1.0   352      2.6   919.2    0.00       0    86.5
 180    2:50   86.8    23    0.4   328      2.2   919.2    0.00       0    86.5
 180    3:00   85.6    24    0.0     0      0.0   919.3    0.00       0    86.4
 180    3:10   85.4    25    0.2   204      2.1   919.3    0.00       0    86.3
 180    3:20   84.8    25    0.3    78      1.5   919.4    0.00       0    86.2
 180    3:30   85.9    22    1.3   357      3.5   919.4    0.00       0    86.2
 180    3:40   85.9    24    0.1    13      1.8   919.3    0.00       0    86.1
 180    3:50   84.6    25    0.6   223      1.9   919.4    0.00       0    86.0
 180    4:00   83.9    27    0.6   185      2.2   919.6    0.00       0    86.0
 180    4:10   83.8    26    0.3   331      1.5   919.7    0.00       0    85.9
 180    4:20   83.4    27    0.2   229      1.6   919.8    0.00       0    85.8
 180    4:30   83.1    28    0.2   274      1.5   919.8    0.00       0    85.8
 180    4:40   82.5    28    0.0   298      0.6   919.9    0.00       0    85.7
 180    4:50   82.4    28    0.1    40      1.4   920.1    0.00       0    85.6
 180    5:00   82.4    27    0.1   336      1.5   920.1    0.00       0    85.6
 180    5:10   82.7    26    0.7    52      3.2   920.3    0.00       1    85.5
 180    5:20   84.1    23    0.6    40      3.3   920.4    0.00       3    85.4
 180    5:30   84.4    22    0.7    32      2.1   920.5    0.00       3    85.4
 180    5:40   84.3    25    0.4    53      2.1   920.6    0.00      10    84.7
 180    5:50   82.5    30    0.5   178      2.0   920.8    0.00      19    82.5

Return to St. George, Utah graphs page.


Western Regional Climate Center,wrcc@dri.edu